Flight Track Log - Related Links

Times and Time Zones

All times are in EDT time to prevent confusion due to time zone crossing. See the WWI24 flight status page for this flight to view local times or setup timezone preferences in your user account.

Time Position Orientation Groundspeed Altitude Reporting Facility
EDT Latitude Longitude Course Direction KTS MPH feet Rate Location/Type
Tue 05:20:09 PM 32.5950 -114.6728 351° North 231 266 5,400  Level Los Angeles Center
Tue 05:20:57 PM 32.6114 -114.7367 287° West 273 314 8,200 3,863 Climbing Los Angeles Center
Tue 05:21:22 PM 32.6358 -114.7453 343° North 286 329 10,100 3,724 Climbing Los Angeles Center
Tue 05:22:24 PM 32.7258 -114.7444 360° North 318 366 13,600 3,588 Climbing Los Angeles Center
Tue 05:22:59 PM 32.7914 -114.7492 357° North 363 418 15,900 3,484 Climbing Los Angeles Center
Tue 05:23:26 PM 32.8283 -114.7469 North 359 413 17,200 3,700 Climbing Los Angeles Center
Tue 05:23:59 PM 32.8964 -114.7492 358° North 381 438 19,600 3,387 Climbing Los Angeles Center
Tue 05:24:00 PM 33.2551 -114.7000 North  Level FlightAware Approximate
Tue 05:24:28 PM 32.9378 -114.7494 360° North 384 442 20,700  Level Los Angeles Center
Tue 05:25:00 PM 33.3564 -114.7113 351° North  Level FlightAware Approximate
Tue 05:25:00 PM 33.0167 -114.7525 358° North 403 464 22,700  Level Los Angeles Center
Tue 05:25:30 PM 33.0744 -114.7517 North 405 466 23,000 196 Climbing Los Angeles Center
Tue 05:26:32 PM 33.1928 -114.7531 359° North 421 484 23,000 1,161 Level Los Angeles Center
Tue 05:27:34 PM 33.3092 -114.7561 359° North 420 483 25,400 1,463 Climbing Los Angeles Center
Tue 05:28:35 PM 33.4292 -114.7575 359° North 430 495 26,000 293 Climbing Los Angeles Center
Tue 05:29:37 PM 33.5483 -114.7644 357° North 430 495 26,000  Level Los Angeles Center
Tue 05:30:39 PM 33.6608 -114.7903 349° North 414 476 26,000  Level Los Angeles Center
Tue 05:31:41 PM 33.7947 -114.8253 348° North 410 472 26,000  Level Los Angeles Center
Tue 05:32:43 PM 33.9053 -114.8542 348° North 408 470 26,000  Level Los Angeles Center
Tue 05:33:45 PM 34.0161 -114.8836 348° North 408 470 26,000  Level Los Angeles Center
Tue 05:34:47 PM 34.1267 -114.9117 348° North 408 470 26,000  Level Los Angeles Center
Tue 05:35:49 PM 34.2403 -114.9422 347° North 417 480 26,000  Level Los Angeles Center
Tue 05:36:51 PM 34.3539 -114.9725 348° North 420 483 26,000 -387 Level Los Angeles Center
Tue 05:37:53 PM 34.4900 -115.0064 348° North 418 481 25,200 -919 Descending Los Angeles Center
Tue 05:38:55 PM 34.5992 -115.0353 348° North 407 468 24,100 -933 Descending Los Angeles Center
Tue 05:40:08 PM 34.7142 -115.0661 348° North 404 465 23,100 -1,257 Descending Los Angeles Center
Tue 05:41:23 PM 34.8369 -115.1283 337° Northwest 396 456 21,000 -1,883 Descending Los Angeles Center
Tue 05:42:25 PM 34.9456 -115.1994 332° Northwest 371 427 18,800 -1,839 Descending Los Angeles Center
Tue 05:43:27 PM 35.0372 -115.2581 332° Northwest 362 417 17,200 -823 Descending Los Angeles Center
Tue 05:44:29 PM 35.1233 -115.3144 332° Northwest 355 409 17,100 -532 Descending Los Angeles Center
Tue 05:45:31 PM 35.2261 -115.3811 332° Northwest 357 411 16,100 -1,258 Descending Los Angeles Center
Tue 05:46:33 PM 35.3133 -115.4383 332° Northwest 355 409 14,500 -1,463 Descending Los Angeles Center
Tue 05:47:34 PM 35.4000 -115.4961 331° Northwest 355 409 13,100 -780 Descending Los Angeles Center
Tue 05:48:36 PM 35.4806 -115.5492 332° Northwest 339 390 12,900 -126 Descending Los Angeles Center
Tue 05:49:09 PM 35.5236 -115.5786 331° Northwest 301 346 12,900 -290 Level Los Angeles Center
Tue 05:49:38 PM 35.5503 -115.5956 333° Northwest 301 346 12,600 -1,082 Descending Los Angeles Center
Tue 05:50:10 PM 35.5922 -115.5961 359° North 259 298 11,800 -1,258 Descending Los Angeles Center
Tue 05:50:40 PM 35.6142 -115.5783 33° Northeast 257 296 11,300 -1,522 Descending Los Angeles Center
Tue 05:51:17 PM 35.6483 -115.5358 45° Northeast 260 299 10,100 -1,548 Descending Los Angeles Center
Tue 05:51:42 PM 35.6653 -115.5147 45° Northeast 257 296 9,700 -1,770 Descending Los Angeles Center
Tue 05:52:18 PM 35.7072 -115.4692 41° Northeast 268 308 8,300 -1,672 Descending Los Angeles Center
Tue 05:52:43 PM 35.7300 -115.4442 42° Northeast 258 297 8,000 -295 Descending Los Angeles Center
Tue 05:53:19 PM 35.7578 -115.4131 42° Northeast 237 273 8,000  Level Los Angeles Center
Tue 05:53:45 PM 35.7800 -115.3878 43° Northeast 254 292 8,000  Level Los Angeles Center
Tue 05:54:14 PM 35.8028 -115.3614 43° Northeast 237 273 8,000  Level Los Angeles Center
Tue 05:54:47 PM 35.8286 -115.3339 41° Northeast 246 283 8,000 100 Level Los Angeles Center
Tue 05:55:14 PM 35.8553 -115.3044 42° Northeast 256 295 8,100 -194 Climbing Los Angeles Center
Tue 05:55:49 PM 35.8806 -115.2792 39° Northeast 244 281 7,800 -764 Descending Los Angeles Center
Tue 05:56:09 PM 35.9033 -115.2675 23° Northeast 214 246 7,400 -885 Descending Los Angeles Center
Tue 05:56:50 PM 35.9219 -115.2531 32° Northeast 228 262 6,900 -1,279 Descending Los Angeles Center
Tue 05:57:10 PM 35.9550 -115.2372 21° North 203 234 6,100 -1,645 Descending Los Angeles Center
Tue 05:57:52 PM 35.9836 -115.2211 24° Northeast 210 242 5,200 -1,701 Descending Los Angeles Center
Tue 05:58:17 PM 36.0108 -115.2056 25° Northeast 193 222 4,200 -968 Descending Los Angeles Center
Tue 05:58:54 PM 36.0403 -115.1892 24° Northeast 207 238 4,200 -857 Level Los Angeles Center
Tue 05:59:55 PM 36.0658 -115.1753 24° Northeast 193 222 2,800 -1,377 Descending Los Angeles Center
Tue 06:02:00 PM 36.0801 -115.1523 95° East  Level Estimated

Login

Don't have an account? Register now (free) for customized features, flight alerts, and more!